createdAt,value
2019-03-21T00:02:19.913Z,8.43
2019-03-21T00:04:51.989Z,8.13
2019-03-21T00:07:23.290Z,8.70
2019-03-21T00:10:31.111Z,9.17
2019-03-21T00:13:02.438Z,8.60
2019-03-21T00:15:56.880Z,8.23
2019-03-21T00:18:28.162Z,7.53
2019-03-21T00:20:59.511Z,8.30
2019-03-21T00:23:32.486Z,8.73
2019-03-21T00:26:04.039Z,8.57
2019-03-21T00:28:35.438Z,8.23
2019-03-21T00:31:06.854Z,10.50
2019-03-21T00:33:38.225Z,11.17
2019-03-21T00:36:10.626Z,8.93
2019-03-21T00:38:42.164Z,11.80
2019-03-21T00:41:13.503Z,9.50
2019-03-21T00:43:44.803Z,10.37
2019-03-21T00:46:16.167Z,10.93
2019-03-21T00:48:47.477Z,12.03
2019-03-21T00:51:18.830Z,10.97
2019-03-21T00:53:50.066Z,9.50
2019-03-21T00:56:21.342Z,10.60
2019-03-21T00:58:52.742Z,9.30
2019-03-21T01:01:24.155Z,8.83
2019-03-21T01:03:55.388Z,10.23
2019-03-21T01:06:26.744Z,10.07
2019-03-21T01:08:57.980Z,8.70
2019-03-21T01:11:29.346Z,8.47
2019-03-21T01:14:00.574Z,8.33
2019-03-21T01:16:31.840Z,8.40
2019-03-21T01:19:03.237Z,7.57
2019-03-21T01:21:34.585Z,8.77
2019-03-21T01:24:06.034Z,8.00
2019-03-21T01:26:37.291Z,7.77
2019-03-21T01:29:08.590Z,8.07
2019-03-21T01:31:39.872Z,7.17
2019-03-21T01:34:11.097Z,6.60
2019-03-21T01:36:42.444Z,7.00
2019-03-21T01:39:13.658Z,6.80
2019-03-21T01:41:44.918Z,6.40
2019-03-21T01:44:16.137Z,7.97
2019-03-21T01:46:47.522Z,6.87
2019-03-21T01:49:18.808Z,7.60
2019-03-21T01:51:51.237Z,7.87
2019-03-21T01:54:22.532Z,7.97
2019-03-21T01:56:53.872Z,7.90
2019-03-21T01:59:25.089Z,8.07
2019-03-21T02:01:56.377Z,7.30
2019-03-21T02:04:27.610Z,6.50
2019-03-21T02:06:58.872Z,8.50
2019-03-21T02:09:30.282Z,8.20
2019-03-21T02:12:01.652Z,8.80
2019-03-21T02:14:32.961Z,8.63
2019-03-21T02:17:06.276Z,8.93
2019-03-21T02:19:37.528Z,7.13
2019-03-21T02:22:09.012Z,7.63
2019-03-21T02:24:40.242Z,8.00
2019-03-21T02:27:11.588Z,8.07
2019-03-21T02:29:42.806Z,6.80
2019-03-21T02:32:14.146Z,7.20
2019-03-21T02:34:45.431Z,7.87
2019-03-21T02:37:17.951Z,6.70
2019-03-21T02:39:59.528Z,7.57
2019-03-21T02:42:22.189Z,6.63
2019-03-21T02:45:07.723Z,7.13
2019-03-21T02:47:26.525Z,7.77
2019-03-21T02:49:57.801Z,7.30
2019-03-21T02:52:30.177Z,7.50
2019-03-21T02:55:01.522Z,6.97
2019-03-21T02:57:32.817Z,6.80
2019-03-21T03:00:07.498Z,7.07
2019-03-21T03:02:39.121Z,7.77
2019-03-21T03:05:15.146Z,6.80
2019-03-21T03:07:46.487Z,7.00
2019-03-21T03:10:50.866Z,7.67
2019-03-21T03:13:22.213Z,6.83
2019-03-21T03:15:53.649Z,7.83
2019-03-21T03:18:26.153Z,7.07
2019-03-21T03:20:57.381Z,7.83
2019-03-21T03:23:28.784Z,7.57
2019-03-21T03:26:00.060Z,7.13
2019-03-21T03:28:42.220Z,7.17
2019-03-21T03:31:13.544Z,7.50
2019-03-21T03:33:45.246Z,7.50
2019-03-21T03:36:17.443Z,7.07
2019-03-21T03:38:48.818Z,8.10
2019-03-21T03:41:22.035Z,6.70
2019-03-21T03:43:53.335Z,7.37
2019-03-21T03:46:24.605Z,7.40
2019-03-21T03:48:55.910Z,8.63
2019-03-21T03:51:27.280Z,7.07
2019-03-21T03:53:58.622Z,7.33
2019-03-21T03:56:30.034Z,8.10
2019-03-21T03:59:05.982Z,7.60
2019-03-21T04:01:37.398Z,7.60
2019-03-21T04:04:08.710Z,8.00
2019-03-21T04:06:40.421Z,8.93
2019-03-21T04:09:11.738Z,8.30
2019-03-21T04:11:43.136Z,7.70
2019-03-21T04:14:15.535Z,7.47
2019-03-21T04:16:47.053Z,8.07
2019-03-21T04:19:18.343Z,7.77
2019-03-21T04:21:49.834Z,7.70
2019-03-21T04:24:21.131Z,7.50
2019-03-21T04:26:52.576Z,7.47
2019-03-21T04:29:23.811Z,7.87
2019-03-21T04:31:55.044Z,7.80
2019-03-21T04:34:27.425Z,7.57
2019-03-21T04:37:01.722Z,7.83
2019-03-21T04:39:33.857Z,7.30
2019-03-21T04:42:05.249Z,8.17
2019-03-21T04:44:36.683Z,9.50
2019-03-21T04:47:07.913Z,8.83
2019-03-21T04:49:39.402Z,8.37
2019-03-21T04:52:10.666Z,9.03
2019-03-21T04:54:42.130Z,7.47
2019-03-21T04:57:13.580Z,8.13
2019-03-21T04:59:44.868Z,7.97
2019-03-21T05:02:16.229Z,8.23
2019-03-21T05:04:47.668Z,8.10
2019-03-21T05:07:27.476Z,8.80
2019-03-21T05:09:58.922Z,7.80
2019-03-21T05:12:30.199Z,7.60
2019-03-21T05:15:01.646Z,8.10
2019-03-21T05:17:34.016Z,8.07
2019-03-21T05:20:14.289Z,10.57
2019-03-21T05:22:45.144Z,9.20
2019-03-21T05:25:18.534Z,8.97
2019-03-21T05:27:49.831Z,8.50
2019-03-21T05:30:37.702Z,8.43
2019-03-21T05:33:08.934Z,8.20
2019-03-21T05:35:40.355Z,8.90
2019-03-21T05:38:12.688Z,8.10
2019-03-21T05:40:44.077Z,10.67
2019-03-21T05:43:25.850Z,17.63
2019-03-21T05:45:58.400Z,13.73
2019-03-21T05:48:29.649Z,11.37
2019-03-21T05:51:00.939Z,11.13
2019-03-21T05:53:33.939Z,10.10
2019-03-21T05:56:05.255Z,10.20
2019-03-21T05:58:36.531Z,9.77
2019-03-21T06:01:15.094Z,10.00
2019-03-21T06:03:52.510Z,8.60
2019-03-21T06:07:03.572Z,8.10
2019-03-21T06:09:35.002Z,8.50
2019-03-21T06:12:08.150Z,7.87
2019-03-21T06:14:55.372Z,8.23
2019-03-21T06:17:26.925Z,7.97
2019-03-21T06:20:29.034Z,12.87
2019-03-21T06:23:42.997Z,10.43
2019-03-21T06:26:42.976Z,10.27
2019-03-21T06:29:14.207Z,9.90
2019-03-21T06:31:45.498Z,9.27
2019-03-21T06:34:16.901Z,8.57
2019-03-21T06:36:48.276Z,8.43
2019-03-21T06:39:19.584Z,9.47
2019-03-21T06:41:49.846Z,9.73
2019-03-21T06:44:21.157Z,10.13
2019-03-21T06:46:52.517Z,11.20
2019-03-21T06:49:23.899Z,9.93
2019-03-21T06:51:55.268Z,11.17
2019-03-21T06:54:26.535Z,12.57
2019-03-21T06:56:57.911Z,14.43
2019-03-21T06:59:29.167Z,13.23
2019-03-21T07:02:00.505Z,11.80
2019-03-21T07:04:31.820Z,10.23
2019-03-21T07:07:08.431Z,10.30
2019-03-21T07:09:36.623Z,10.87
2019-03-21T07:12:08.072Z,10.57
2019-03-21T07:14:39.433Z,12.23
2019-03-21T07:17:10.871Z,13.67
2019-03-21T07:19:42.194Z,11.97
2019-03-21T07:22:13.469Z,14.57
2019-03-21T07:24:44.777Z,13.07
2019-03-21T07:27:17.621Z,13.57
2019-03-21T07:29:48.855Z,16.47
2019-03-21T07:32:20.476Z,12.43
2019-03-21T07:34:54.591Z,12.63
2019-03-21T07:37:26.278Z,11.60
2019-03-21T07:43:07.922Z,12.80
2019-03-21T07:45:39.308Z,12.00
2019-03-21T07:48:10.611Z,11.80
2019-03-21T07:50:42.039Z,10.97
2019-03-21T07:53:13.293Z,11.37
2019-03-21T07:55:44.667Z,12.17
2019-03-21T07:58:16.015Z,11.53
2019-03-21T08:00:47.319Z,12.37
2019-03-21T08:03:18.745Z,11.50
2019-03-21T08:05:50.133Z,11.77
2019-03-21T08:08:21.422Z,11.20
2019-03-21T08:10:52.692Z,10.17
2019-03-21T08:13:24.096Z,11.70
2019-03-21T08:15:55.504Z,10.70
2019-03-21T08:18:26.798Z,11.03
2019-03-21T08:21:00.167Z,10.75
2019-03-21T08:23:34.155Z,10.93
2019-03-21T08:26:05.442Z,9.87
2019-03-21T08:28:36.727Z,9.77
2019-03-21T08:31:12.880Z,10.53
2019-03-21T08:33:57.477Z,11.22
2019-03-21T08:36:28.715Z,10.58
2019-03-21T08:39:01.095Z,10.63
2019-03-21T08:41:33.704Z,9.98
2019-03-21T08:44:05.767Z,11.47
2019-03-21T08:46:37.202Z,11.53
2019-03-21T08:49:08.447Z,11.68
2019-03-21T08:51:39.814Z,11.48
2019-03-21T08:54:11.124Z,10.85
2019-03-21T08:57:01.163Z,11.20
2019-03-21T08:59:32.623Z,12.05
2019-03-21T09:02:04.970Z,12.20
2019-03-21T09:04:36.210Z,12.05
2019-03-21T09:07:07.523Z,11.80
2019-03-21T09:09:38.887Z,12.55
2019-03-21T09:12:15.834Z,14.25
2019-03-21T09:14:47.198Z,12.85
2019-03-21T09:17:18.519Z,12.88
2019-03-21T09:19:49.897Z,12.45
2019-03-21T09:22:21.350Z,10.58
2019-03-21T09:24:52.726Z,9.50
2019-03-21T09:27:24.104Z,11.12
2019-03-21T09:29:55.784Z,10.32
2019-03-21T09:32:27.487Z,10.65
2019-03-21T09:34:58.797Z,10.72
2019-03-21T09:37:30.179Z,10.28
2019-03-21T09:40:01.495Z,9.03
2019-03-21T09:42:32.747Z,10.70
2019-03-21T09:45:10.548Z,10.10
2019-03-21T09:47:41.856Z,8.55
2019-03-21T09:50:19.702Z,9.68
2019-03-21T09:52:51.048Z,9.73
2019-03-21T09:55:24.381Z,9.20
2019-03-21T09:57:55.689Z,9.30
2019-03-21T10:00:36.179Z,8.25
2019-03-21T10:03:07.779Z,7.33
2019-03-21T10:05:39.100Z,7.37
2019-03-21T10:08:10.408Z,7.58
2019-03-21T10:10:40.891Z,7.33
2019-03-21T10:13:12.212Z,6.85
2019-03-21T10:15:43.685Z,6.87
2019-03-21T10:18:15.051Z,7.20
2019-03-21T10:20:46.542Z,8.33
2019-03-21T10:23:18.576Z,7.65
2019-03-21T10:25:49.937Z,7.53
2019-03-21T10:28:21.420Z,7.50
2019-03-21T10:30:52.796Z,7.05
2019-03-21T10:33:24.120Z,8.35
2019-03-21T10:35:55.559Z,7.75
2019-03-21T10:38:26.895Z,7.47
2019-03-21T10:40:58.354Z,7.45
2019-03-21T10:43:29.616Z,7.75
2019-03-21T10:46:02.131Z,7.53
2019-03-21T10:48:33.538Z,7.72
2019-03-21T10:51:04.925Z,8.03
2019-03-21T10:53:36.308Z,7.47
2019-03-21T10:56:07.710Z,7.83
2019-03-21T10:58:39.155Z,7.55
2019-03-21T11:01:10.689Z,8.40
2019-03-21T11:03:42.076Z,7.20
2019-03-21T11:06:13.360Z,7.05
2019-03-21T11:08:44.701Z,7.25
2019-03-21T11:11:16.104Z,8.90
2019-03-21T11:13:47.377Z,7.03
2019-03-21T11:16:18.843Z,7.80
2019-03-21T11:18:50.268Z,6.75
2019-03-21T11:21:21.710Z,7.20
2019-03-21T11:23:53.060Z,5.62
2019-03-21T11:26:24.460Z,5.92
2019-03-21T11:28:55.744Z,5.72
2019-03-21T11:31:30.385Z,5.70
2019-03-21T11:34:01.741Z,5.72
2019-03-21T11:36:38.134Z,6.22
2019-03-21T11:39:09.628Z,5.83
2019-03-21T11:41:42.087Z,5.67
2019-03-21T11:44:13.444Z,5.35
2019-03-21T11:46:44.759Z,5.30
2019-03-21T11:49:16.094Z,5.53
2019-03-21T11:51:47.510Z,5.90
2019-03-21T11:54:18.777Z,5.85
2019-03-21T11:56:54.677Z,5.12
2019-03-21T11:59:36.967Z,3.90
2019-03-21T12:01:58.991Z,4.55
2019-03-21T12:04:30.259Z,4.80
2019-03-21T12:07:01.619Z,5.15
2019-03-21T12:09:32.958Z,5.33
2019-03-21T12:12:04.330Z,5.17
2019-03-21T12:14:35.637Z,4.00
2019-03-21T12:17:07.014Z,3.95
2019-03-21T12:19:38.329Z,3.98
2019-03-21T12:22:09.752Z,4.40
2019-03-21T12:24:41.123Z,5.40
2019-03-21T12:27:12.410Z,4.05
2019-03-21T12:29:43.724Z,3.80
2019-03-21T12:32:15.073Z,4.75
2019-03-21T12:34:46.393Z,4.25
2019-03-21T12:37:17.634Z,4.42
2019-03-21T12:39:48.951Z,4.30
2019-03-21T12:42:23.644Z,5.35
2019-03-21T12:44:55.126Z,5.45
2019-03-21T12:47:31.158Z,5.70
2019-03-21T12:49:59.444Z,6.03
2019-03-21T12:52:41.002Z,5.42
2019-03-21T12:55:05.747Z,5.72
2019-03-21T12:57:37.184Z,6.15
2019-03-21T13:00:16.083Z,5.70
2019-03-21T13:02:47.394Z,5.20
2019-03-21T13:05:32.534Z,5.90
2019-03-21T13:08:05.881Z,6.08
2019-03-21T13:10:37.308Z,5.95
2019-03-21T13:13:09.065Z,5.80
2019-03-21T13:15:40.746Z,5.97
2019-03-21T13:18:42.894Z,5.60
2019-03-21T13:21:16.567Z,5.25
2019-03-21T13:23:47.979Z,5.65
2019-03-21T13:26:19.235Z,5.50
2019-03-21T13:28:50.517Z,5.70
2019-03-21T13:31:21.804Z,5.35
2019-03-21T13:33:53.195Z,5.87
2019-03-21T13:36:24.430Z,5.12
2019-03-21T13:38:57.948Z,6.90
2019-03-21T13:41:29.299Z,5.83
2019-03-21T13:44:00.663Z,5.15
2019-03-21T13:46:32.084Z,4.80
2019-03-21T13:49:06.037Z,4.87
2019-03-21T13:51:37.054Z,5.10
2019-03-21T13:54:08.951Z,5.65
2019-03-21T13:56:42.402Z,5.60
2019-03-21T13:59:14.725Z,5.55
2019-03-21T14:01:46.157Z,6.08
2019-03-21T14:04:17.675Z,4.90
2019-03-21T14:06:49.100Z,5.30
2019-03-21T14:09:22.228Z,5.45
2019-03-21T14:11:53.570Z,6.12
2019-03-21T14:14:26.420Z,7.87
2019-03-21T14:16:57.797Z,5.47
2019-03-21T14:19:29.102Z,6.20
2019-03-21T14:22:00.460Z,5.12
2019-03-21T14:24:33.547Z,5.67
2019-03-21T14:27:04.947Z,5.70
2019-03-21T14:29:36.365Z,6.37
2019-03-21T14:32:07.680Z,4.80
2019-03-21T14:34:42.268Z,4.67
2019-03-21T14:37:14.386Z,4.80
2019-03-21T14:39:45.702Z,4.58
2019-03-21T14:42:16.999Z,4.22
2019-03-21T14:44:50.122Z,4.83
2019-03-21T14:47:21.639Z,5.05
2019-03-21T14:49:53.562Z,4.35
2019-03-21T14:52:27.020Z,4.20
2019-03-21T14:54:58.915Z,4.55
2019-03-21T14:57:30.422Z,4.28
2019-03-21T15:00:01.805Z,4.87
2019-03-21T15:02:33.273Z,4.28
2019-03-21T15:05:08.760Z,4.33
2019-03-21T15:07:40.089Z,4.28
2019-03-21T15:10:22.567Z,4.03
2019-03-21T15:12:55.307Z,3.77
2019-03-21T15:15:26.703Z,4.15
2019-03-21T15:17:58.834Z,4.97
2019-03-21T15:20:35.157Z,4.70
2019-03-21T15:23:06.502Z,4.22
2019-03-21T15:25:38.013Z,4.05
2019-03-21T15:28:11.050Z,3.70
2019-03-21T15:30:45.852Z,3.37
2019-03-21T15:33:20.016Z,3.33
2019-03-21T15:35:51.333Z,3.22
2019-03-21T15:38:22.637Z,3.35
2019-03-21T15:40:54.572Z,3.05
2019-03-21T15:43:25.819Z,2.80
2019-03-21T15:45:58.480Z,2.70
2019-03-21T15:48:32.802Z,2.80
2019-03-21T15:51:05.186Z,2.67
2019-03-21T15:53:36.612Z,2.17
2019-03-21T15:56:16.659Z,2.10
2019-03-21T15:58:42.782Z,2.72
2019-03-21T16:01:14.141Z,3.08
2019-03-21T16:03:45.712Z,2.17
2019-03-21T16:06:17.161Z,4.53
2019-03-21T16:08:48.470Z,3.65
2019-03-21T16:11:19.749Z,2.52
2019-03-21T16:13:50.993Z,2.40
2019-03-21T16:16:22.346Z,3.92
2019-03-21T16:18:53.677Z,2.60
2019-03-21T16:21:24.981Z,2.58
2019-03-21T16:24:05.158Z,2.62
2019-03-21T16:26:30.421Z,2.45
2019-03-21T16:29:02.684Z,2.05
2019-03-21T16:31:33.973Z,2.33
2019-03-21T16:34:05.355Z,2.62
2019-03-21T16:36:36.669Z,2.47
2019-03-21T16:39:08.614Z,2.80
2019-03-21T16:41:42.843Z,3.90
2019-03-21T16:44:14.091Z,2.77
2019-03-21T16:46:45.451Z,2.50
2019-03-21T16:49:18.052Z,2.37
2019-03-21T16:51:54.147Z,2.52
2019-03-21T16:54:30.166Z,2.90
2019-03-21T16:57:00.652Z,3.40
2019-03-21T16:59:32.394Z,2.92
2019-03-21T17:02:03.663Z,2.55
2019-03-21T17:04:34.913Z,2.33
2019-03-21T17:07:06.395Z,2.60
2019-03-21T17:09:39.161Z,2.62
2019-03-21T17:12:10.480Z,3.10
2019-03-21T17:14:42.019Z,3.67
2019-03-21T17:17:13.343Z,3.22
2019-03-21T17:19:44.624Z,3.27
2019-03-21T17:22:16.041Z,3.22
2019-03-21T17:24:47.385Z,3.50
2019-03-21T17:27:18.823Z,3.08
2019-03-21T17:29:50.344Z,3.70
2019-03-21T17:32:23.390Z,4.12
2019-03-21T17:35:10.317Z,5.35
2019-03-21T17:37:43.742Z,4.78
2019-03-21T17:40:16.509Z,4.40
2019-03-21T17:42:47.760Z,5.20
2019-03-21T17:45:22.440Z,5.70
2019-03-21T17:47:53.734Z,5.05
2019-03-21T17:50:25.504Z,5.65
2019-03-21T17:52:56.717Z,5.60
2019-03-21T17:55:29.327Z,5.55
2019-03-21T17:58:00.667Z,5.33
2019-03-21T18:00:38.179Z,5.37
2019-03-21T18:03:09.690Z,6.42
2019-03-21T18:05:42.983Z,5.25
2019-03-21T18:08:14.442Z,5.30
2019-03-21T18:10:47.688Z,4.83
2019-03-21T18:13:19.203Z,5.22
2019-03-21T18:15:50.673Z,4.50
2019-03-21T18:18:23.458Z,5.10
2019-03-21T18:20:57.195Z,5.17
2019-03-21T18:23:28.796Z,5.10
2019-03-21T18:26:01.713Z,5.03
2019-03-21T18:28:45.694Z,5.10
2019-03-21T18:31:17.003Z,4.15
2019-03-21T18:33:48.503Z,4.40
2019-03-21T18:36:19.839Z,4.42
2019-03-21T18:39:02.767Z,5.28
2019-03-21T18:41:34.195Z,8.18
2019-03-21T18:44:05.714Z,7.17
2019-03-21T18:46:36.973Z,6.40
2019-03-21T18:49:08.385Z,7.75
2019-03-21T18:51:39.838Z,7.03
2019-03-21T18:54:12.161Z,6.70
2019-03-21T18:56:50.801Z,8.98
2019-03-21T18:59:22.134Z,11.03
2019-03-21T19:01:58.367Z,11.28
2019-03-21T19:04:26.719Z,10.40
2019-03-21T19:07:00.725Z,9.30
2019-03-21T19:09:35.028Z,8.70
2019-03-21T19:12:06.552Z,7.28
2019-03-21T19:14:42.549Z,7.33
2019-03-21T19:17:14.071Z,6.87
2019-03-21T19:19:59.218Z,7.33
2019-03-21T19:22:30.699Z,6.47
2019-03-21T19:25:02.154Z,5.22
2019-03-21T19:27:36.093Z,5.47
2019-03-21T19:30:12.311Z,5.37
2019-03-21T19:32:43.615Z,5.70
2019-03-21T19:35:20.852Z,5.37
2019-03-21T19:37:52.363Z,5.12
2019-03-21T19:40:23.872Z,5.30
2019-03-21T19:42:56.772Z,5.90
2019-03-21T19:45:28.262Z,5.87
2019-03-21T19:47:59.613Z,6.17
2019-03-21T19:50:31.071Z,11.38
2019-03-21T19:53:02.395Z,6.80
2019-03-21T19:55:37.638Z,5.75
2019-03-21T19:58:12.459Z,5.92
2019-03-21T20:00:46.560Z,5.85
2019-03-21T20:03:17.942Z,5.33
2019-03-21T20:06:00.239Z,5.08
2019-03-21T20:08:25.927Z,5.40
2019-03-21T20:10:59.043Z,4.70
2019-03-21T20:13:30.486Z,5.03
2019-03-21T20:16:02.550Z,5.12
2019-03-21T20:18:35.106Z,5.05
2019-03-21T20:21:06.603Z,4.65
2019-03-21T20:23:38.232Z,4.92
2019-03-21T20:26:10.184Z,5.00
2019-03-21T20:28:41.653Z,4.85
2019-03-21T20:31:12.950Z,5.35
2019-03-21T20:33:45.954Z,4.85
2019-03-21T20:36:17.254Z,5.47
2019-03-21T20:38:51.367Z,5.35
2019-03-21T20:41:21.609Z,6.33
2019-03-21T20:43:52.840Z,6.87
2019-03-21T20:46:24.113Z,6.67
2019-03-21T20:48:53.874Z,6.55
2019-03-21T20:51:26.941Z,5.75
2019-03-21T20:53:58.371Z,6.10
2019-03-21T20:56:29.841Z,6.22
2019-03-21T20:59:01.258Z,5.95
2019-03-21T21:01:37.355Z,6.10
2019-03-21T21:04:11.376Z,7.30
2019-03-21T21:06:42.678Z,9.43
2019-03-21T21:09:14.107Z,7.55
2019-03-21T21:11:45.655Z,6.58
2019-03-21T21:14:19.768Z,5.90
2019-03-21T21:16:51.482Z,4.97
2019-03-21T21:19:22.901Z,5.10
2019-03-21T21:21:54.189Z,5.92
2019-03-21T21:24:27.129Z,6.47
2019-03-21T21:26:58.435Z,6.22
2019-03-21T21:29:31.960Z,5.78
2019-03-21T21:32:03.278Z,6.45
2019-03-21T21:34:34.652Z,6.78
2019-03-21T21:37:05.957Z,7.00
2019-03-21T21:39:37.392Z,6.58
2019-03-21T21:42:08.798Z,6.17
2019-03-21T21:44:40.235Z,6.33
2019-03-21T21:47:11.606Z,5.85
2019-03-21T21:49:42.815Z,5.30
2019-03-21T21:52:15.523Z,5.37
2019-03-21T21:54:49.175Z,5.00
2019-03-21T21:57:19.925Z,5.30
2019-03-21T21:59:53.051Z,5.22
2019-03-21T22:02:24.207Z,5.78
2019-03-21T22:04:55.434Z,6.15
2019-03-21T22:07:26.783Z,5.87
2019-03-21T22:09:58.219Z,5.30
2019-03-21T22:12:29.480Z,5.80
2019-03-21T22:15:00.846Z,5.35
2019-03-21T22:17:32.352Z,5.22
2019-03-21T22:20:04.289Z,5.05
2019-03-21T22:22:39.940Z,5.20
2019-03-21T22:25:11.577Z,5.47
2019-03-21T22:27:43.073Z,5.35
2019-03-21T22:30:19.434Z,4.53
2019-03-21T22:32:50.726Z,5.00
2019-03-21T22:35:22.118Z,4.95
2019-03-21T22:37:54.543Z,4.83
2019-03-21T22:40:25.846Z,4.78
2019-03-21T22:42:57.125Z,4.60
2019-03-21T22:45:28.428Z,5.20
2019-03-21T22:47:59.734Z,5.12
2019-03-21T22:50:30.970Z,5.12
2019-03-21T22:53:02.317Z,5.03
2019-03-21T22:55:33.826Z,5.28
2019-03-21T22:58:05.417Z,5.05
2019-03-21T23:00:47.361Z,5.20
2019-03-21T23:03:19.470Z,5.12
2019-03-21T23:05:50.921Z,4.78
2019-03-21T23:08:23.531Z,5.62
2019-03-21T23:10:57.621Z,5.85
2019-03-21T23:13:29.199Z,6.55
2019-03-21T23:16:00.549Z,5.40
2019-03-21T23:18:32.087Z,5.12
2019-03-21T23:21:05.029Z,6.20
2019-03-21T23:23:36.395Z,5.25
2019-03-21T23:26:09.365Z,5.55
2019-03-21T23:28:40.933Z,6.00
2019-03-21T23:31:12.240Z,6.62
2019-03-21T23:33:43.588Z,6.10
2019-03-21T23:36:15.021Z,5.65
2019-03-21T23:38:46.379Z,6.15
2019-03-21T23:41:17.692Z,5.83
2019-03-21T23:43:49.043Z,7.05
2019-03-21T23:46:20.347Z,5.95
2019-03-21T23:48:51.614Z,5.80
2019-03-21T23:51:22.841Z,6.08
2019-03-21T23:53:54.208Z,5.25
2019-03-21T23:56:25.508Z,4.70
2019-03-21T23:58:56.936Z,5.58
